首页
METAR-TAF:

METAR-TAF

机场 :

南宁吴圩国际机场

南宁, 中华人民共和国

纬度: 22-49N, 经度: 108-21E, 海拔: 73米

当前天气观测

该预报发布于1小时和6分钟前的10:00 UTC
风速6节,风向南转南东,有时为17节阵风,在东转东南之间变化
温度 31°C
湿度 79%
气压 1000 hPa
能见度10公里或以上
1500米以下无云,无积雨云

METAR: ZGNN 191000Z 16003G09MPS 120V190 CAVOK 31/27 Q1000 NOSIG

时间: 19:06 (11:06 UTC)

预报

该预报发布于8小时和0分钟前的03:06 UTC
预报有效从19日的 06点(UTC)到 20日的 06点(UTC)
风速6节,风向南转南东
能見度: 7000
散云层高于3300英尺
短暂存在
从 19日的 06点(UTC)到 19日的 10点(UTC)
散云层高于1000英尺
少量云层高于2600英尺, 积雨云.
多云层高于3000英尺
雷暴, 雨,

TAF: ZGNN 190306Z 1906/2006 16003MPS 7000 SCT033 TX34/1907Z TN26/1922Z TEMPO 1906/1910 TSRA SCT010 FEW026CB BKN030

超过4000个机场的气象观测和天气预报(METAR&TAF报告)。

可查询的气象台以黄色和红色小点在地图上表示。

将鼠标移到小点上方,可查看气象台名称。

然后点击查看天气观测和预报。

如需切换地图:点击带黑十字的绿色按钮放大地图;点击带横线的绿色按钮缩小地图;或者点击绿色箭头查看邻近地区的地图。


METAR-TAF: